首页
METAR-TAF:

METAR-TAF

机场 :

Rochester International Airport

羅徹斯特, 明尼蘇達州, 美国

纬度: 43-54-15N, 经度: 092-29-30W, 海拔: 401米

当前天气观测

该预报发布于30分钟前的02:54 UTC
风速3节,风向
温度 18°C
湿度 68%
气压 1013 hPa
能見度: 16.1公里
天空无云

METAR: KRST 190254Z 36003KT 10SM CLR 18/12 A2990 RMK AO2 SLP121 T01780117 55000

时间: 22:24 (03:24 UTC)

预报

该预报发布于3小时和54分钟前的23:30 UTC
预报有效从19日的 00点(UTC)到 19日的 24点(UTC)
风速5节,风向北转西北
能見度: 10公里
多云层高于15000英尺
从 19日的 1700点(UTC)
风速5节,风向东北
能見度: 10公里
多云层高于5000英尺

TAF: KRST 182330Z 1900/1924 33005KT P6SM BKN150 FM191700 04005KT P6SM BKN050

超过4000个机场的气象观测和天气预报(METAR&TAF报告)。

可查询的气象台以黄色和红色小点在地图上表示。

将鼠标移到小点上方,可查看气象台名称。

然后点击查看天气观测和预报。

如需切换地图:点击带黑十字的绿色按钮放大地图;点击带横线的绿色按钮缩小地图;或者点击绿色箭头查看邻近地区的地图。


METAR-TAF: